Strona główna
METAR-TAF:

METAR-TAF

Lotnisko :

Port lotniczy Algier

Algier, Algieria

Szerokość geograficzna: 36-43N, Długość geograficzna: 003-15E, wysokość: 25 m

Aktualna obserwacja pogody

Raport powstał 16 minut temu, godzina 03:30 UTC
Wiatr 2 kt od południe
Temperatura 17°C
Wilgotność 100%
Ciśnienie 1014 hPa
Widzialność: 4000 m
Mało chmury na wysokości 1300 ft
zamglenie

METAR: DAAG 250330Z 18002KT 4000 BR FEW013 17/17 Q1014

czas: 04:46 (03:46 UTC)

Prognoza

Raport powstał 4 godziny i 46 minut temu, godzina 23:00 UTC
Prognoza ważna od 25 godzina 00 UTC do 25 godzina 24 UTC
Wiatr 8 kt od północno-północny wschód
Widzialność 10 km lub więcej
Mało chmury na wysokości 2000 ft
Prawdopodobieństwo 30% :
Przejściowo
od 25 godzina 00 UTC do 25 godzina 06 UTC
Widzialność: 4000 m
zamglenie
Stopniowe zmiany
od 25 godzina 09 UTC do 25 godzina 12 UTC
Wiatr 10 kt od wschód

TAF: DAAG 242300Z 2500/2524 02008KT 9999 FEW020 PROB30 TEMPO 2500/2506 4000 BR BECMG 2509/2512 08010KT

Obserwacja i prognoza pogody dla ponad 4000 lotnisk (raport METAR i TAF).

Dostępne stacje oznaczono żółtymi i czerwonymi punktami na mapie.

Najedź kursorem aby zobaczyć nazwę stacji.

Kliknij aby zobaczyć obserwacje i prognozy pogody.

Aby zmienić mapę: kliknij na zielony przycisk z czarnym krzyżykiem, aby powiększyć; na zielony przycisk z myślnikiem, aby pomniejszyć; na zielone strzałki, aby przejść do map sąsiednich.


METAR-TAF: